createdAt,value
2023-01-11T00:00:15.016Z,82.43
2023-01-11T00:01:15.557Z,82.05
2023-01-11T00:02:15.960Z,82.52
2023-01-11T00:03:16.766Z,83
2023-01-11T00:04:17.037Z,82.43
2023-01-11T00:05:17.181Z,82.24
2023-01-11T00:06:17.953Z,82.24
2023-01-11T00:07:18.303Z,82.62
2023-01-11T00:08:18.296Z,82.33
2023-01-11T00:09:19.508Z,82.43
2023-01-11T00:10:20.458Z,83
2023-01-11T00:11:21.141Z,83.09
2023-01-11T00:12:21.797Z,83
2023-01-11T00:13:22.743Z,83.37
2023-01-11T00:14:23.423Z,83.28
2023-01-11T00:15:23.943Z,83.85
2023-01-11T00:16:24.510Z,84.13
2023-01-11T00:17:24.865Z,84.32
2023-01-11T00:18:25.079Z,83.94
2023-01-11T00:19:25.289Z,84.04
2023-01-11T00:20:25.834Z,84.13
2023-01-11T00:21:26.809Z,84.04
2023-01-11T00:22:26.744Z,83.66
2023-01-11T00:23:28.017Z,82.14
2023-01-11T00:24:28.516Z,81.57
2023-01-11T00:25:29.424Z,81.76
2023-01-11T00:26:30.030Z,81.38
2023-01-11T00:27:30.946Z,81.57
2023-01-11T00:28:31.159Z,80.91
2023-01-11T00:29:31.796Z,80.91
2023-01-11T00:30:32.740Z,80.53
2023-01-11T00:31:33.131Z,80.53
2023-01-11T00:32:34.332Z,80.15
2023-01-11T00:33:34.277Z,80.15
2023-01-11T00:34:34.952Z,80.15
2023-01-11T00:35:35.892Z,79.87
2023-01-11T00:36:36.207Z,79.68
2023-01-11T00:37:37.119Z,79.39
2023-01-11T00:38:37.632Z,79.3
2023-01-11T00:39:37.898Z,79.87
2023-01-11T00:40:38.100Z,80.15
2023-01-11T00:41:38.662Z,79.96
2023-01-11T00:42:39.599Z,80.34
2023-01-11T00:43:39.813Z,80.44
2023-01-11T00:44:39.739Z,80.15
2023-01-11T00:45:40.253Z,80.34
2023-01-11T00:46:40.738Z,80.15
2023-01-11T00:47:41.359Z,79.68
2023-01-11T00:48:42.286Z,79.96
2023-01-11T00:49:43.245Z,79.3
2023-01-11T00:50:43.504Z,79.25
2023-01-11T00:51:44.732Z,79.53
2023-01-11T00:52:44.643Z,78.87
2023-01-11T00:53:45.170Z,79.06
2023-01-11T00:54:45.071Z,79.06
2023-01-11T00:55:45.442Z,79.44
2023-01-11T00:56:46.080Z,79.53
2023-01-11T00:57:46.286Z,79.06
2023-01-11T00:58:46.797Z,79.63
2023-01-11T00:59:46.994Z,79.06
2023-01-11T01:00:47.987Z,79.63
2023-01-11T01:01:49.016Z,80.19
2023-01-11T01:02:50.032Z,80.19
2023-01-11T01:03:50.220Z,80
2023-01-11T01:04:50.411Z,80.19
2023-01-11T01:05:51.226Z,80.1
2023-01-11T01:06:52.172Z,79.53
2023-01-11T01:07:52.368Z,79.63
2023-01-11T01:08:53.052Z,79.06
2023-01-11T01:09:53.290Z,79.06
2023-01-11T01:10:53.913Z,79.34
2023-01-11T01:11:55.146Z,79.34
2023-01-11T01:12:55.348Z,79.34
2023-01-11T01:13:55.585Z,79.72
2023-01-11T01:14:55.783Z,80.1
2023-01-11T01:15:56.393Z,79.72
2023-01-11T01:16:56.702Z,80
2023-01-11T01:17:57.910Z,79.72
2023-01-11T01:18:58.116Z,79.25
2023-01-11T01:19:58.301Z,80.19
2023-01-11T01:20:59.565Z,79.72
2023-01-11T01:21:59.807Z,78.96
2023-01-11T01:23:00.318Z,79.15
2023-01-11T01:24:00.530Z,78.87
2023-01-11T01:25:01.464Z,78.67
2023-01-11T01:26:02.106Z,78.58
2023-01-11T01:27:02.737Z,79.25
2023-01-11T01:28:02.946Z,79.06
2023-01-11T01:29:03.336Z,78.3
2023-01-11T01:30:03.866Z,78.39
2023-01-11T01:31:04.183Z,78.39
2023-01-11T01:32:04.010Z,78.67
2023-01-11T01:33:04.942Z,78.67
2023-01-11T01:34:05.154Z,78.11
2023-01-11T01:35:05.357Z,77.83
2023-01-11T01:36:06.310Z,77.92
2023-01-11T01:37:07.654Z,78.49
2023-01-11T01:38:08.569Z,77.83
2023-01-11T01:39:08.830Z,77.35
2023-01-11T01:40:09.449Z,77.64
2023-01-11T01:41:10.673Z,77.45
2023-01-11T01:42:10.898Z,77.25
2023-01-11T01:43:11.092Z,77.35
2023-01-11T01:44:11.322Z,77.45
2023-01-11T01:45:12.248Z,77.06
2023-01-11T01:46:12.904Z,77.73
2023-01-11T01:47:12.844Z,77.73
2023-01-11T01:48:13.774Z,78.58
2023-01-11T01:49:14.992Z,78.58
2023-01-11T01:50:15.483Z,77.64
2023-01-11T01:51:16.448Z,77.64
2023-01-11T01:52:17.079Z,77.16
2023-01-11T01:53:18.022Z,77.83
2023-01-11T01:54:18.273Z,78.77
2023-01-11T01:55:18.700Z,78.39
2023-01-11T01:56:19.936Z,77.35
2023-01-11T01:57:20.741Z,78.11
2023-01-11T01:58:21.657Z,78.2
2023-01-11T01:59:22.335Z,78.02
2023-01-11T02:00:22.273Z,78.49
2023-01-11T02:01:22.289Z,78.96
2023-01-11T02:02:23.151Z,78.58
2023-01-11T02:03:23.362Z,78.67
2023-01-11T02:04:23.610Z,78.3
2023-01-11T02:05:24.848Z,78.02
2023-01-11T02:06:25.109Z,77.92
2023-01-11T02:07:25.490Z,77.64
2023-01-11T02:08:25.717Z,77.77
2023-01-11T02:09:25.921Z,77.67
2023-01-11T02:10:26.581Z,77.77
2023-01-11T02:11:27.125Z,77.48
2023-01-11T02:12:30.096Z,77.77
2023-01-11T02:13:28.650Z,77.67
2023-01-11T02:14:29.592Z,77.77
2023-01-11T02:15:30.561Z,77.77
2023-01-11T02:16:31.174Z,77.96
2023-01-11T02:17:31.792Z,78.72
2023-01-11T02:18:31.997Z,78.43
2023-01-11T02:19:32.475Z,78.62
2023-01-11T02:20:33.126Z,78.43
2023-01-11T02:21:34.086Z,78.91
2023-01-11T02:22:35.006Z,79.38
2023-01-11T02:23:34.914Z,79.76
2023-01-11T02:24:35.602Z,80.33
2023-01-11T02:25:36.811Z,81.09
2023-01-11T02:26:37.012Z,80.52
2023-01-11T02:27:37.753Z,80.8
2023-01-11T02:28:37.960Z,80.71
2023-01-11T02:29:39.200Z,80.71
2023-01-11T02:30:39.134Z,80.8
2023-01-11T02:31:39.778Z,80.62
2023-01-11T02:32:40.273Z,80.99
2023-01-11T02:33:40.507Z,80.8
2023-01-11T02:34:40.431Z,80.99
2023-01-11T02:35:41.404Z,80.9
2023-01-11T02:36:42.082Z,80.8
2023-01-11T02:37:42.844Z,80.9
2023-01-11T02:38:43.332Z,81.18
2023-01-11T02:39:43.553Z,82.04
2023-01-11T02:40:44.035Z,82.04
2023-01-11T02:41:44.504Z,82.6
2023-01-11T02:42:45.464Z,82.6
2023-01-11T02:43:46.162Z,83.46
2023-01-11T02:44:47.099Z,83.17
2023-01-11T02:45:47.295Z,83.74
2023-01-11T02:46:47.657Z,84.03
2023-01-11T02:47:48.248Z,83.65
2023-01-11T02:48:48.456Z,83.94
2023-01-11T02:49:49.102Z,84.03
2023-01-11T02:50:49.011Z,83.94
2023-01-11T02:51:50.010Z,83.65
2023-01-11T02:52:50.935Z,83.84
2023-01-11T02:53:51.165Z,84.12
2023-01-11T02:54:51.677Z,84.59
2023-01-11T02:55:52.624Z,85.36
2023-01-11T02:56:53.168Z,85.93
2023-01-11T02:57:53.493Z,85.74
2023-01-11T02:58:54.702Z,85.55
2023-01-11T02:59:54.928Z,86.78
2023-01-11T03:00:55.147Z,86.3
2023-01-11T03:01:55.550Z,85.93
2023-01-11T03:02:56.016Z,85.17
2023-01-11T03:03:56.803Z,84.12
2023-01-11T03:04:57.297Z,83.94
2023-01-11T03:05:57.779Z,83.94
2023-01-11T03:06:58.230Z,84.59
2023-01-11T03:07:58.298Z,85.17
2023-01-11T03:08:58.220Z,85.17
2023-01-11T03:09:58.801Z,85.17
2023-01-11T03:10:59.029Z,85.36
2023-01-11T03:11:59.240Z,85.17
2023-01-11T03:12:59.159Z,85.36
2023-01-11T03:14:00.380Z,85.83
2023-01-11T03:15:00.894Z,85.64
2023-01-11T03:16:01.059Z,85.93
2023-01-11T03:17:01.508Z,85.55
2023-01-11T03:18:01.855Z,85.64
2023-01-11T03:19:02.473Z,85.93
2023-01-11T03:20:02.696Z,85.07
2023-01-11T03:21:03.344Z,84.88
2023-01-11T03:22:04.282Z,84.69
2023-01-11T03:23:05.207Z,84.78
2023-01-11T03:24:05.712Z,85.17
2023-01-11T03:25:05.935Z,84.88
2023-01-11T03:26:06.189Z,84.03
2023-01-11T03:27:06.420Z,84.69
2023-01-11T03:28:07.203Z,84.69
2023-01-11T03:29:07.418Z,84.78
2023-01-11T03:30:08.358Z,85.17
2023-01-11T03:31:09.388Z,85.17
2023-01-11T03:32:09.674Z,84.69
2023-01-11T03:33:10.162Z,84.12
2023-01-11T03:34:11.068Z,83.74
2023-01-11T03:35:11.267Z,83.17
2023-01-11T03:36:11.753Z,83.27
2023-01-11T03:37:12.022Z,83.17
2023-01-11T03:38:13.078Z,83.08
2023-01-11T03:39:13.294Z,83.17
2023-01-11T03:40:13.600Z,83.46
2023-01-11T03:41:13.964Z,83.55
2023-01-11T03:42:15.170Z,83.65
2023-01-11T03:43:15.543Z,83.17
2023-01-11T03:44:16.795Z,83.08
2023-01-11T03:45:17.037Z,83.65
2023-01-11T03:46:18.008Z,83.65
2023-01-11T03:47:18.406Z,83.46
2023-01-11T03:48:19.422Z,83.08
2023-01-11T03:49:19.355Z,83.08
2023-01-11T03:50:19.989Z,83.27
2023-01-11T03:51:20.486Z,82.98
2023-01-11T03:52:20.716Z,82.6
2023-01-11T03:53:21.215Z,83.08
2023-01-11T03:54:21.708Z,82.6
2023-01-11T03:55:22.218Z,83.08
2023-01-11T03:56:23.128Z,82.89
2023-01-11T03:57:23.354Z,83.55
2023-01-11T03:58:23.838Z,83.46
2023-01-11T03:59:24.758Z,83.36
2023-01-11T04:00:25.720Z,83.08
2023-01-11T04:01:26.531Z,82.98
2023-01-11T04:02:26.817Z,83.08
2023-01-11T04:03:27.347Z,83.94
2023-01-11T04:04:28.137Z,83.17
2023-01-11T04:05:28.621Z,83.17
2023-01-11T04:06:29.681Z,83.27
2023-01-11T04:07:29.763Z,83.27
2023-01-11T04:08:30.758Z,83.36
2023-01-11T04:09:31.061Z,83.46
2023-01-11T04:10:31.853Z,83.08
2023-01-11T04:11:31.769Z,84.12
2023-01-11T04:12:32.710Z,83.65
2023-01-11T04:13:33.110Z,83.65
2023-01-11T04:14:33.472Z,84.12
2023-01-11T04:15:34.423Z,84.12
2023-01-11T04:16:35.184Z,83.74
2023-01-11T04:17:35.861Z,83.84
2023-01-11T04:18:36.464Z,84.12
2023-01-11T04:19:36.660Z,84.41
2023-01-11T04:20:36.850Z,84.03
2023-01-11T04:21:37.775Z,84.41
2023-01-11T04:22:38.294Z,84.41
2023-01-11T04:23:38.914Z,84.22
2023-01-11T04:24:39.390Z,85.07
2023-01-11T04:25:40.071Z,85.07
2023-01-11T04:26:40.991Z,84.78
2023-01-11T04:27:41.192Z,85.26
2023-01-11T04:28:41.193Z,85.07
2023-01-11T04:29:42.266Z,85.07
2023-01-11T04:30:42.489Z,85.74
2023-01-11T04:31:42.915Z,85.45
2023-01-11T04:32:43.135Z,85.36
2023-01-11T04:33:44.080Z,85.64
2023-01-11T04:34:44.276Z,86.02
2023-01-11T04:35:44.481Z,86.21
2023-01-11T04:36:44.976Z,85.83
2023-01-11T04:37:45.632Z,86.3
2023-01-11T04:38:45.957Z,85.45
2023-01-11T04:39:46.884Z,86.4
2023-01-11T04:40:47.104Z,86.3
2023-01-11T04:41:48.043Z,86.87
2023-01-11T04:42:48.535Z,87.06
2023-01-11T04:43:48.911Z,87.06
2023-01-11T04:44:49.817Z,86.97
2023-01-11T04:45:50.866Z,87.45
2023-01-11T04:46:50.981Z,87.82
2023-01-11T04:47:51.501Z,87.82
2023-01-11T04:48:51.787Z,88.39
2023-01-11T04:49:52.727Z,88.39
2023-01-11T04:50:53.075Z,89.06
2023-01-11T04:51:53.711Z,88.96
2023-01-11T04:52:54.083Z,88.68
2023-01-11T04:53:54.710Z,89.25
2023-01-11T04:54:55.920Z,89.2
2023-01-11T04:55:55.850Z,89.62
2023-01-11T04:56:56.092Z,89.58
2023-01-11T04:57:56.996Z,89.86
2023-01-11T04:58:57.365Z,89.77
2023-01-11T04:59:57.872Z,89.96
2023-01-11T05:00:58.184Z,89.86
2023-01-11T05:01:58.989Z,90.53
2023-01-11T05:02:59.692Z,90.53
2023-01-11T05:03:59.989Z,90.53
2023-01-11T05:05:00.398Z,90.53
2023-01-11T05:06:01.358Z,90.91
2023-01-11T05:07:02.456Z,90.72
2023-01-11T05:08:02.941Z,91.09
2023-01-11T05:09:03.668Z,91.57
2023-01-11T05:10:04.627Z,91.38
2023-01-11T05:11:04.846Z,91.28
2023-01-11T05:12:05.799Z,91.28
2023-01-11T05:13:06.451Z,91.66
2023-01-11T05:14:06.814Z,91.66
2023-01-11T05:15:07.702Z,91.28
2023-01-11T05:16:07.971Z,91.85
2023-01-11T05:17:08.666Z,91.38
2023-01-11T05:18:09.331Z,91.76
2023-01-11T05:19:10.075Z,91.28
2023-01-11T05:20:10.584Z,91.38
2023-01-11T05:21:11.507Z,91.28
2023-01-11T05:22:11.722Z,91.38
2023-01-11T05:23:12.652Z,91.19
2023-01-11T05:24:13.304Z,91.09
2023-01-11T05:25:13.504Z,91.76
2023-01-11T05:26:14.041Z,91.38
2023-01-11T05:27:14.236Z,91.28
2023-01-11T05:28:14.439Z,91.28
2023-01-11T05:29:14.748Z,91.76
2023-01-11T05:30:14.963Z,91.28
2023-01-11T05:31:15.192Z,91.85
2023-01-11T05:32:15.872Z,91.76
2023-01-11T05:33:16.380Z,91.66
2023-01-11T05:34:16.868Z,91.85
2023-01-11T05:35:16.787Z,91.76
2023-01-11T05:36:17.755Z,91.66
2023-01-11T05:37:18.984Z,91.76
2023-01-11T05:38:18.941Z,91.76
2023-01-11T05:39:19.055Z,92.8
2023-01-11T05:40:19.965Z,92.9
2023-01-11T05:41:20.915Z,92.99
2023-01-11T05:42:22.304Z,93.08
2023-01-11T05:43:22.750Z,92.8
2023-01-11T05:44:23.260Z,93.13
2023-01-11T05:45:23.191Z,92.99
2023-01-11T05:46:23.775Z,92.9
2023-01-11T05:47:24.717Z,93.18
2023-01-11T05:48:24.663Z,93.27
2023-01-11T05:49:25.365Z,93.56
2023-01-11T05:50:26.287Z,93.94
2023-01-11T05:51:27.215Z,93.75
2023-01-11T05:52:28.131Z,93.84
2023-01-11T05:53:28.797Z,93.94
2023-01-11T05:54:30.012Z,93.56
2023-01-11T05:55:30.229Z,93.75
2023-01-11T05:56:30.449Z,93.94
2023-01-11T05:57:30.368Z,93.84
2023-01-11T05:58:31.299Z,93.94
2023-01-11T05:59:32.302Z,93.94
2023-01-11T06:00:33.267Z,93.56
2023-01-11T06:01:33.761Z,93.84
2023-01-11T06:02:34.643Z,93.84
2023-01-11T06:03:35.440Z,94.04
2023-01-11T06:04:35.349Z,93.84
2023-01-11T06:05:36.272Z,93.84
2023-01-11T06:06:36.305Z,93.65
2023-01-11T06:07:36.733Z,93.84
2023-01-11T06:08:37.958Z,94.32
2023-01-11T06:09:38.272Z,94.79
2023-01-11T06:10:38.472Z,94.6
2023-01-11T06:11:38.418Z,94.7
2023-01-11T06:12:39.044Z,94.6
2023-01-11T06:13:40.274Z,94.7
2023-01-11T06:14:43.386Z,94.6
2023-01-11T06:15:41.322Z,94.32
2023-01-11T06:16:42.367Z,94.32
2023-01-11T06:17:42.229Z,94.51
2023-01-11T06:18:42.465Z,94.79
2023-01-11T06:19:43.505Z,94.98
2023-01-11T06:20:43.840Z,94.98
2023-01-11T06:21:44.793Z,95.45
2023-01-11T06:22:44.694Z,94.98
2023-01-11T06:23:45.349Z,94.79
2023-01-11T06:24:46.595Z,94.79
2023-01-11T06:25:49.497Z,94.79
2023-01-11T06:26:47.429Z,94.7
2023-01-11T06:27:48.649Z,95.17
2023-01-11T06:28:48.897Z,94.98
2023-01-11T06:29:49.670Z,94.98
2023-01-11T06:30:50.727Z,94.7
2023-01-11T06:31:51.134Z,94.51
2023-01-11T06:32:51.627Z,95.45
2023-01-11T06:33:51.880Z,94.89
2023-01-11T06:34:52.512Z,94.42
2023-01-11T06:35:53.462Z,94.79
2023-01-11T06:36:53.654Z,95.26
2023-01-11T06:37:53.583Z,95.55
2023-01-11T06:38:54.243Z,95.74
2023-01-11T06:39:54.721Z,95.84
2023-01-11T06:40:54.994Z,95.84
2023-01-11T06:41:55.198Z,96.03
2023-01-11T06:42:55.697Z,96.22
2023-01-11T06:43:55.635Z,96.12
2023-01-11T06:44:56.616Z,95.74
2023-01-11T06:45:57.012Z,96.22
2023-01-11T06:46:57.156Z,95.74
2023-01-11T06:47:57.077Z,95.36
2023-01-11T06:48:57.717Z,95.93
2023-01-11T06:49:59.002Z,96.12
2023-01-11T06:50:59.512Z,95.65
2023-01-11T06:51:59.819Z,95.55
2023-01-11T06:52:59.739Z,95.74
2023-01-11T06:54:00.693Z,96.22
2023-01-11T06:55:01.651Z,95.55
2023-01-11T06:56:01.865Z,95.74
2023-01-11T06:57:01.894Z,95.84
2023-01-11T06:58:02.870Z,95.84
2023-01-11T06:59:03.318Z,95.84
2023-01-11T07:00:04.117Z,95.84
2023-01-11T07:01:04.879Z,95.93
2023-01-11T07:02:05.498Z,95.65
2023-01-11T07:03:05.412Z,95.17
2023-01-11T07:04:05.924Z,95.45
2023-01-11T07:05:06.732Z,95.36
2023-01-11T07:06:07.011Z,95.45
2023-01-11T07:07:07.647Z,95.45
2023-01-11T07:08:08.559Z,95.36
2023-01-11T07:09:08.881Z,95.84
2023-01-11T07:10:08.903Z,95.74
2023-01-11T07:11:09.262Z,96.12
2023-01-11T07:12:09.427Z,95.84
2023-01-11T07:13:09.440Z,95.84
2023-01-11T07:14:10.155Z,95.88
2023-01-11T07:15:11.159Z,95.6
2023-01-11T07:16:11.503Z,95.31
2023-01-11T07:17:11.798Z,95.69
2023-01-11T07:18:12.301Z,95.03
2023-01-11T07:19:12.160Z,95.41
2023-01-11T07:20:13.182Z,95.12
2023-01-11T07:21:13.735Z,95.88
2023-01-11T07:22:14.388Z,95.07
2023-01-11T07:23:15.049Z,95.17
2023-01-11T07:24:15.586Z,95.36
2023-01-11T07:25:15.948Z,95.17
2023-01-11T07:26:17.524Z,95.41
2023-01-11T07:27:17.904Z,95.36
2023-01-11T07:28:18.138Z,94.74
2023-01-11T07:29:18.367Z,94.65
2023-01-11T07:30:18.381Z,95.03
2023-01-11T07:31:19.863Z,94.84
2023-01-11T07:32:20.045Z,94.74
2023-01-11T07:33:20.676Z,94.84
2023-01-11T07:34:20.957Z,94.56
2023-01-11T07:35:21.441Z,94.27
2023-01-11T07:36:22.257Z,94.56
2023-01-11T07:37:34.650Z,94.74
2023-01-11T07:38:23.146Z,94.84
2023-01-11T07:39:31.876Z,94.65
2023-01-11T07:40:31.879Z,94.65
2023-01-11T07:41:32.955Z,95.6
2023-01-11T07:42:33.549Z,95.6
2023-01-11T07:43:34.473Z,95.12
2023-01-11T07:44:34.698Z,95.69
2023-01-11T07:45:50.376Z,96.08
2023-01-11T07:46:35.912Z,96.26
2023-01-11T07:47:36.419Z,96.08
2023-01-11T07:48:36.350Z,95.98
2023-01-11T07:49:36.578Z,96.17
2023-01-11T07:50:37.301Z,96.17
2023-01-11T07:51:38.178Z,96.83
2023-01-11T07:52:38.381Z,96.64
2023-01-11T07:53:39.299Z,96.73
2023-01-11T07:54:39.893Z,97.02
2023-01-11T07:55:40.586Z,96.17
2023-01-11T07:56:41.094Z,96.26
2023-01-11T07:57:41.780Z,95.41
2023-01-11T07:58:43.009Z,95.22
2023-01-11T07:59:43.505Z,94.93
2023-01-11T08:00:44.482Z,95.03
2023-01-11T08:01:46.072Z,94.56
2023-01-11T08:02:45.842Z,94.6
2023-01-11T08:03:46.654Z,94.03
2023-01-11T08:04:47.186Z,93.37
2023-01-11T08:05:47.691Z,93.46
2023-01-11T08:06:48.619Z,92.9
2023-01-11T08:07:49.125Z,92.52
2023-01-11T08:08:50.173Z,92.61
2023-01-11T08:09:50.677Z,92.71
2023-01-11T08:10:51.263Z,92.9
2023-01-11T08:11:51.814Z,93.56
2023-01-11T08:12:52.057Z,92.71
2023-01-11T08:13:52.606Z,92.52
2023-01-11T08:14:53.623Z,92.42
2023-01-11T08:15:53.957Z,92.42
2023-01-11T08:16:53.708Z,92.52
2023-01-11T08:17:54.665Z,92.8
2023-01-11T08:18:55.220Z,92.9
2023-01-11T08:19:56.264Z,92.14
2023-01-11T08:20:56.923Z,92.71
2023-01-11T08:21:57.595Z,92.8
2023-01-11T08:22:57.843Z,91.38
2023-01-11T08:23:58.351Z,92.23
2023-01-11T08:24:58.655Z,92.9
2023-01-11T08:25:58.879Z,92.23
2023-01-11T08:26:59.210Z,92.99
2023-01-11T08:27:59.625Z,91.38
2023-01-11T08:28:59.859Z,91.75
2023-01-11T08:30:00.124Z,91.94
2023-01-11T08:31:00.926Z,92.04
2023-01-11T08:32:01.428Z,91.85
2023-01-11T08:33:01.781Z,91.38
2023-01-11T08:34:02.567Z,91.75
2023-01-11T08:35:02.831Z,91.85
2023-01-11T08:36:03.069Z,91.75
2023-01-11T08:37:03.579Z,91.56
2023-01-11T08:38:03.784Z,91.56
2023-01-11T08:39:04.000Z,91.56
2023-01-11T08:40:04.994Z,92.14
2023-01-11T08:41:05.790Z,91.56
2023-01-11T08:42:06.728Z,91.75
2023-01-11T08:43:07.263Z,92.04
2023-01-11T08:44:07.470Z,91.42
2023-01-11T08:45:07.716Z,91.14
2023-01-11T08:46:08.359Z,90.95
2023-01-11T08:47:08.549Z,90.66
2023-01-11T08:48:09.214Z,90.19
2023-01-11T08:49:10.160Z,89.9
2023-01-11T08:50:09.801Z,90.19
2023-01-11T08:51:10.217Z,89.81
2023-01-11T08:52:10.451Z,89.43
2023-01-11T08:53:12.212Z,89.43
2023-01-11T08:54:11.447Z,89.05
2023-01-11T08:55:12.412Z,89.14
2023-01-11T08:56:12.744Z,88.1
2023-01-11T08:57:13.458Z,88.76
2023-01-11T08:58:14.026Z,88.39
2023-01-11T08:59:15.070Z,87.95
2023-01-11T09:00:15.770Z,87.62
2023-01-11T09:01:16.496Z,87.62
2023-01-11T09:02:16.957Z,88.34
2023-01-11T09:03:18.004Z,88.62
2023-01-11T09:04:29.891Z,88.15
2023-01-11T09:05:18.561Z,88.05
2023-01-11T09:06:19.150Z,88.43
2023-01-11T09:07:19.811Z,88.34
2023-01-11T09:08:20.819Z,88.05
2023-01-11T09:09:21.034Z,87.57
2023-01-11T09:10:21.560Z,87.67
2023-01-11T09:11:21.529Z,87.38
2023-01-11T09:12:21.935Z,87.01
2023-01-11T09:13:22.320Z,86.72
2023-01-11T09:14:23.024Z,86.24
2023-01-11T09:15:23.472Z,86.53
2023-01-11T09:16:23.897Z,85.96
2023-01-11T09:17:24.266Z,85.77
2023-01-11T09:18:24.839Z,85.3
2023-01-11T09:19:25.358Z,85.43
2023-01-11T09:20:25.592Z,85.2
2023-01-11T09:21:26.296Z,85.24
2023-01-11T09:22:26.516Z,84.58
2023-01-11T09:23:26.726Z,84.95
2023-01-11T09:24:27.663Z,84.86
2023-01-11T09:25:28.305Z,84.67
2023-01-11T09:26:28.591Z,84.58
2023-01-11T09:27:28.726Z,84.86
2023-01-11T09:28:29.760Z,84.86
2023-01-11T09:29:29.700Z,84.29
2023-01-11T09:30:31.325Z,83.82
2023-01-11T09:31:31.186Z,84.24
2023-01-11T09:32:32.073Z,83.67
2023-01-11T09:33:32.683Z,83.48
2023-01-11T09:34:33.029Z,83.67
2023-01-11T09:35:33.509Z,83.19
2023-01-11T09:36:34.542Z,83.19
2023-01-11T09:37:35.114Z,83.29
2023-01-11T09:38:35.723Z,83
2023-01-11T09:39:35.651Z,83.48
2023-01-11T09:40:36.021Z,83.86
2023-01-11T09:41:36.397Z,83.29
2023-01-11T09:42:37.010Z,83.39
2023-01-11T09:43:37.423Z,83.48
2023-01-11T09:44:37.926Z,83.76
2023-01-11T09:45:38.427Z,84.43
2023-01-11T09:46:39.005Z,84.24
2023-01-11T09:47:39.477Z,84.43
2023-01-11T09:48:39.865Z,83.95
2023-01-11T09:49:39.803Z,83.48
2023-01-11T09:50:40.115Z,83
2023-01-11T09:51:41.349Z,82.71
2023-01-11T09:52:41.582Z,82.38
2023-01-11T09:53:42.122Z,81.52
2023-01-11T09:54:43.183Z,81.24
2023-01-11T09:55:44.130Z,80.66
2023-01-11T09:56:44.475Z,79.75
2023-01-11T09:57:44.904Z,78.52
2023-01-11T09:58:45.052Z,78.9
2023-01-11T09:59:46.071Z,78.99
2023-01-11T10:00:46.404Z,78.71
2023-01-11T10:01:46.175Z,78.71
2023-01-11T10:02:46.760Z,78.61
2023-01-11T10:03:47.316Z,78.61
2023-01-11T10:04:47.751Z,77.95
2023-01-11T10:05:47.905Z,78.33
2023-01-11T10:06:48.147Z,78.23
2023-01-11T10:07:49.123Z,77.85
2023-01-11T10:14:05.938Z,77.66
2023-01-11T10:19:04.522Z,76.9
2023-01-11T10:19:52.517Z,76.61
2023-01-11T10:20:52.400Z,76.61
2023-01-11T10:21:53.002Z,77
2023-01-11T10:22:53.533Z,77.09
2023-01-11T10:23:53.740Z,77.66
2023-01-11T10:24:54.713Z,76.71
2023-01-11T10:25:55.940Z,77.28
2023-01-11T10:26:56.551Z,77.28
2023-01-11T10:27:57.054Z,78.33
2023-01-11T10:28:57.326Z,77.85
2023-01-11T10:29:57.904Z,77.19
2023-01-11T10:30:58.374Z,77.37
2023-01-11T10:31:58.908Z,76.9
2023-01-11T10:32:59.633Z,76.46
2023-01-11T10:34:00.167Z,76.46
2023-01-11T10:35:00.828Z,76.27
2023-01-11T10:36:01.428Z,76.08
2023-01-11T10:37:01.710Z,75.42
2023-01-11T10:38:01.944Z,75.51
2023-01-11T10:39:02.232Z,75.13
2023-01-11T10:40:02.491Z,75.55
2023-01-11T10:41:02.958Z,75.16
2023-01-11T10:42:03.501Z,74.12
2023-01-11T10:43:04.754Z,73.36
2023-01-11T10:44:05.753Z,73.36
2023-01-11T10:45:06.715Z,73.17
2023-01-11T10:47:07.428Z,72.53
2023-01-11T10:48:08.106Z,72.72
2023-01-11T10:49:08.677Z,72.72
2023-01-11T10:50:11.968Z,71.3
2023-01-11T10:51:10.644Z,71.3
2023-01-11T10:53:12.150Z,71.58
2023-01-11T10:54:12.874Z,71.77
2023-01-11T10:55:13.522Z,71.68
2023-01-11T10:56:14.760Z,71.14
2023-01-11T10:57:15.325Z,70.47
2023-01-11T10:58:15.551Z,70.57
2023-01-11T10:59:15.955Z,70.19
2023-01-11T11:00:16.309Z,70.57
2023-01-11T11:01:17.721Z,71.81
2023-01-11T11:02:17.441Z,71.48
2023-01-11T11:03:17.756Z,71.77
2023-01-11T11:04:18.011Z,72.16
2023-01-11T11:05:18.296Z,72.44
2023-01-11T11:06:18.640Z,72.53
2023-01-11T11:07:35.474Z,72.16
2023-01-11T11:08:20.160Z,72.21
2023-01-11T11:09:20.713Z,72.6
2023-01-11T11:10:21.805Z,72.78
2023-01-11T11:11:22.147Z,73.65
2023-01-11T11:12:22.460Z,73.45
2023-01-11T11:13:23.039Z,73.45
2023-01-11T11:14:23.546Z,73.55
2023-01-11T11:15:24.074Z,73.74
2023-01-11T11:16:24.740Z,73.65
2023-01-11T11:17:25.252Z,73.8
2023-01-11T11:18:26.540Z,74.46
2023-01-11T11:19:27.367Z,75.23
2023-01-11T11:20:27.732Z,75.13
2023-01-11T11:21:28.266Z,75.51
2023-01-11T11:22:29.450Z,75.7
2023-01-11T11:23:29.672Z,75.99
2023-01-11T11:24:29.580Z,75.99
2023-01-11T11:25:30.550Z,75.99
2023-01-11T11:26:31.520Z,76.08
2023-01-11T11:27:31.569Z,76.65
2023-01-11T11:28:32.536Z,76.94
2023-01-11T11:29:32.750Z,76.84
2023-01-11T11:30:33.272Z,76.27
2023-01-11T11:31:34.395Z,76.27
2023-01-11T11:32:36.591Z,77.13
2023-01-11T11:33:35.292Z,77
2023-01-11T11:34:35.621Z,76.75
2023-01-11T11:35:35.924Z,76.81
2023-01-11T11:36:36.555Z,77.37
2023-01-11T11:37:36.825Z,77.66
2023-01-11T11:38:37.363Z,77.47
2023-01-11T11:39:37.606Z,77.09
2023-01-11T11:40:37.976Z,77.19
2023-01-11T11:41:38.522Z,77.37
2023-01-11T11:42:38.732Z,77.19
2023-01-11T11:43:39.997Z,77.28
2023-01-11T11:44:40.875Z,77.56
2023-01-11T11:45:42.017Z,78.14
2023-01-11T11:46:42.135Z,77.95
2023-01-11T11:47:42.383Z,78.61
2023-01-11T11:48:43.431Z,78.04
2023-01-11T11:49:43.799Z,78.14
2023-01-11T11:50:50.859Z,77.95
2023-01-11T11:51:45.104Z,78.23
2023-01-11T11:52:46.111Z,78.14
2023-01-11T11:53:46.246Z,78.71
2023-01-11T11:54:46.451Z,79.19
2023-01-11T11:55:46.951Z,78.71
2023-01-11T11:56:47.221Z,78.71
2023-01-11T11:57:47.145Z,78.9
2023-01-11T11:58:47.818Z,78.61
2023-01-11T11:59:48.535Z,78.9
2023-01-11T12:00:49.542Z,78.61
2023-01-11T12:01:50.297Z,79.94
2023-01-11T12:02:50.981Z,79.38
2023-01-11T12:03:50.917Z,79.09
2023-01-11T12:04:51.592Z,79.75
2023-01-11T12:05:52.059Z,79.94
2023-01-11T12:06:54.476Z,79.66
2023-01-11T12:08:00.080Z,79.75
2023-01-11T12:08:53.605Z,79.66
2023-01-11T12:09:53.533Z,79.19
2023-01-11T12:10:54.756Z,78.8
2023-01-11T12:11:55.791Z,78.71
2023-01-11T12:12:56.020Z,79.38
2023-01-11T12:13:57.059Z,78.71
2023-01-11T12:14:57.975Z,78.8
2023-01-11T12:15:58.173Z,78.61
2023-01-11T12:16:58.524Z,78.85
2023-01-11T12:17:58.937Z,78.71
2023-01-11T12:18:58.869Z,78.99
2023-01-11T12:19:59.611Z,78.85
2023-01-11T12:20:59.871Z,78.99
2023-01-11T12:22:00.544Z,78.75
2023-01-11T12:23:01.160Z,78.8
2023-01-11T12:24:02.083Z,78.85
2023-01-11T12:25:03.061Z,78.75
2023-01-11T12:26:04.049Z,78.56
2023-01-11T12:27:04.440Z,78.75
2023-01-11T12:28:04.679Z,78.9
2023-01-11T12:29:05.337Z,78.9
2023-01-11T12:30:06.254Z,79.19
2023-01-11T12:31:07.355Z,79.38
2023-01-11T12:32:07.130Z,79.38
2023-01-11T12:33:07.790Z,78.8
2023-01-11T12:34:08.755Z,78.71
2023-01-11T12:35:09.459Z,78.52
2023-01-11T12:36:09.962Z,78.8
2023-01-11T12:37:10.871Z,78.61
2023-01-11T12:38:11.163Z,79.38
2023-01-11T12:39:11.662Z,78.9
2023-01-11T12:40:12.175Z,79.19
2023-01-11T12:41:14.207Z,78.9
2023-01-11T12:42:12.967Z,78.52
2023-01-11T12:43:13.605Z,79.38
2023-01-11T12:44:14.522Z,79.19
2023-01-11T12:45:14.452Z,79.28
2023-01-11T12:46:15.801Z,79.57
2023-01-11T12:47:17.940Z,79.85
2023-01-11T12:48:16.967Z,79.94
2023-01-11T12:49:17.626Z,80.04
2023-01-11T12:50:18.184Z,80.13
2023-01-11T12:51:19.179Z,79.85
2023-01-11T12:52:19.256Z,80.42
2023-01-11T12:53:19.308Z,80.52
2023-01-11T12:54:20.511Z,80.71
2023-01-11T12:55:20.833Z,80.52
2023-01-11T12:56:21.335Z,80.99
2023-01-11T12:57:21.862Z,81.47
2023-01-11T12:58:22.109Z,81.85
2023-01-11T12:59:22.780Z,81.47
2023-01-11T13:00:23.083Z,82.04
2023-01-11T13:01:23.493Z,82.61
2023-01-11T13:02:23.810Z,82.23
2023-01-11T13:03:24.331Z,82.23
2023-01-11T13:04:24.867Z,82.8
2023-01-11T13:05:25.185Z,82.76
2023-01-11T13:06:25.752Z,82.51
2023-01-11T13:07:25.694Z,82.76
2023-01-11T13:08:26.099Z,82.67
2023-01-11T13:09:26.647Z,83.14
2023-01-11T13:10:26.880Z,83.42
2023-01-11T13:11:27.373Z,83.23
2023-01-11T13:12:27.673Z,83.71
2023-01-11T13:13:28.670Z,83.81